Главная страница
METAR-TAF:

METAR-TAF

Аэропорты :

Hagerstown, Мэриленд, США

широта: 39-42-21N, долгота: 077-43-48W, высота над уровнем моря: 214 м

Текущие метеонаблюдения

Эта сводка был подготовлена 23 минут назад, в 11:53 UTC
Ветер 3 Узел от северо-северо-восточный
Температура -2°C
Влажность 69%
Давление 1013 hPa
Видимость: 16.1 км
небольшая облачность на высоте 3400 фута
Отдельные облака на высоте 4100 фута
Сплошная облачность на высоте 5500 фута

METAR: KHGR 281153Z 02003KT 10SM FEW034 SCT041 OVC055 M02/M07 A2990 RMK AO2 SLP141 T10171067 11006 21017 51005

Время: 07:16 (12:16 UTC)


TAF: отсутствует

Метеонаблюдения и прогнозы для более 4000 аэропортов (сводки METAR и TAF).

Имеющиеся станции представлены на карте желтыми и красными точками.

Чтобы увидеть название станции, наведите на нее мышь.

Затем щелкните, чтобы увидеть метеонаблюдения и метеопрогнозы.

Управление картой: чтобы увеличить масштаб, щелкните зеленые кнопки с черным крестиком; чтобы уменьшить масштаб, щелкните зеленую кнопку с тире; для просмотра соседних карт щелкайте зеленые стрелки.


METAR-TAF: